sensor_id;sensor_type;location;lat;lon;timestamp;pressure;altitude;pressure_sealevel;temperature;humidity
39265;BME280;42646;51.910;7.724;2023-01-26T00:01:24;101890.13;;;-1.31;100.00
39265;BME280;42646;51.910;7.724;2023-01-26T00:03:54;101878.38;;;-1.10;100.00
39265;BME280;42646;51.910;7.724;2023-01-26T00:06:23;101890.34;;;-1.40;100.00
39265;BME280;42646;51.910;7.724;2023-01-26T00:08:54;101894.84;;;-1.47;100.00
39265;BME280;42646;51.910;7.724;2023-01-26T00:11:24;101894.81;;;-1.45;100.00
39265;BME280;42646;51.910;7.724;2023-01-26T00:14:18;101879.06;;;-1.41;100.00
39265;BME280;42646;51.910;7.724;2023-01-26T00:16:46;101876.34;;;-1.38;100.00
39265;BME280;42646;51.910;7.724;2023-01-26T00:19:19;101881.56;;;-1.38;100.00
39265;BME280;42646;51.910;7.724;2023-01-26T00:21:47;101879.78;;;-1.34;100.00
39265;BME280;42646;51.910;7.724;2023-01-26T00:24:14;101877.13;;;-1.32;100.00
39265;BME280;42646;51.910;7.724;2023-01-26T00:26:42;101873.59;;;-1.30;100.00
39265;BME280;42646;51.910;7.724;2023-01-26T00:29:09;101870.91;;;-1.27;100.00
39265;BME280;42646;51.910;7.724;2023-01-26T00:31:38;101861.38;;;-1.28;100.00
39265;BME280;42646;51.910;7.724;2023-01-26T00:34:05;101856.16;;;-1.28;100.00
39265;BME280;42646;51.910;7.724;2023-01-26T00:36:36;101848.28;;;-1.26;100.00
39265;BME280;42646;51.910;7.724;2023-01-26T00:39:05;101851.78;;;-1.27;100.00
39265;BME280;42646;51.910;7.724;2023-01-26T00:41:33;101867.41;;;-1.26;100.00
39265;BME280;42646;51.910;7.724;2023-01-26T00:44:18;101865.69;;;-1.27;100.00
39265;BME280;42646;51.910;7.724;2023-01-26T00:46:46;101848.38;;;-1.29;100.00
39265;BME280;42646;51.910;7.724;2023-01-26T00:49:14;101847.38;;;-1.25;100.00
39265;BME280;42646;51.910;7.724;2023-01-26T00:51:43;101843.16;;;-1.31;100.00
39265;BME280;42646;51.910;7.724;2023-01-26T00:54:11;101857.97;;;-1.31;100.00
39265;BME280;42646;51.910;7.724;2023-01-26T00:56:38;101850.06;;;-1.28;100.00
39265;BME280;42646;51.910;7.724;2023-01-26T00:59:06;101835.28;;;-1.28;100.00
39265;BME280;42646;51.910;7.724;2023-01-26T01:01:35;101835.31;;;-1.29;100.00
39265;BME280;42646;51.910;7.724;2023-01-26T01:04:04;101851.03;;;-1.32;100.00
39265;BME280;42646;51.910;7.724;2023-01-26T01:06:32;101840.53;;;-1.31;100.00
39265;BME280;42646;51.910;7.724;2023-01-26T01:09:02;101830.59;;;-1.14;100.00
39265;BME280;42646;51.910;7.724;2023-01-26T01:11:30;101837.88;;;-1.28;100.00
39265;BME280;42646;51.910;7.724;2023-01-26T01:13:58;101837.13;;;-1.33;100.00
39265;BME280;42646;51.910;7.724;2023-01-26T01:16:25;101833.59;;;-1.32;100.00
39265;BME280;42646;51.910;7.724;2023-01-26T01:18:54;101834.47;;;-1.30;100.00
39265;BME280;42646;51.910;7.724;2023-01-26T01:21:23;101831.84;;;-1.30;100.00
39265;BME280;42646;51.910;7.724;2023-01-26T01:23:51;101836.13;;;-1.27;100.00
39265;BME280;42646;51.910;7.724;2023-01-26T01:26:20;101837.88;;;-1.28;100.00
39265;BME280;42646;51.910;7.724;2023-01-26T01:28:52;101834.38;;;-1.27;100.00
39265;BME280;42646;51.910;7.724;2023-01-26T01:31:20;101836.06;;;-1.24;100.00
39265;BME280;42646;51.910;7.724;2023-01-26T01:33:49;101842.16;;;-1.24;100.00
39265;BME280;42646;51.910;7.724;2023-01-26T01:36:17;101830.84;;;-1.24;100.00
39265;BME280;42646;51.910;7.724;2023-01-26T01:38:46;101822.06;;;-1.22;100.00
39265;BME280;42646;51.910;7.724;2023-01-26T01:41:15;101830.75;;;-1.21;100.00
39265;BME280;42646;51.910;7.724;2023-01-26T01:43:45;101822.88;;;-1.18;100.00
39265;BME280;42646;51.910;7.724;2023-01-26T01:46:22;101821.97;;;-1.17;100.00
39265;BME280;42646;51.910;7.724;2023-01-26T01:48:55;101810.63;;;-1.16;100.00
39265;BME280;42646;51.910;7.724;2023-01-26T01:51:26;101808.94;;;-1.19;100.00
39265;BME280;42646;51.910;7.724;2023-01-26T01:54:03;101813.28;;;-1.18;100.00
39265;BME280;42646;51.910;7.724;2023-01-26T01:56:33;101815.88;;;-1.16;100.00
39265;BME280;42646;51.910;7.724;2023-01-26T01:59:04;101814.06;;;-1.14;100.00
39265;BME280;42646;51.910;7.724;2023-01-26T02:01:33;101812.28;;;-1.12;100.00
39265;BME280;42646;51.910;7.724;2023-01-26T02:04:03;101805.34;;;-1.13;100.00
39265;BME280;42646;51.910;7.724;2023-01-26T02:06:41;101796.63;;;-1.14;100.00
39265;BME280;42646;51.910;7.724;2023-01-26T02:09:13;101797.53;;;-1.15;100.00
39265;BME280;42646;51.910;7.724;2023-01-26T02:12:01;101794.03;;;-1.14;100.00
39265;BME280;42646;51.910;7.724;2023-01-26T02:14:31;101795.78;;;-1.13;100.00
39265;BME280;42646;51.910;7.724;2023-01-26T02:16:59;101804.47;;;-1.12;100.00
39265;BME280;42646;51.910;7.724;2023-01-26T02:19:32;101794.88;;;-1.12;100.00
39265;BME280;42646;51.910;7.724;2023-01-26T02:22:10;101791.47;;;-1.15;100.00
39265;BME280;42646;51.910;7.724;2023-01-26T02:24:42;101789.66;;;-1.13;100.00
39265;BME280;42646;51.910;7.724;2023-01-26T02:27:11;101787.03;;;-1.12;100.00
39265;BME280;42646;51.910;7.724;2023-01-26T02:29:40;101793.06;;;-1.10;100.00
39265;BME280;42646;51.910;7.724;2023-01-26T02:32:09;101796.53;;;-1.09;100.00
39265;BME280;42646;51.910;7.724;2023-01-26T02:34:37;101790.41;;;-1.08;100.00
39265;BME280;42646;51.910;7.724;2023-01-26T02:37:12;101794.75;;;-1.07;100.00
39265;BME280;42646;51.910;7.724;2023-01-26T02:39:44;101790.38;;;-1.05;100.00
39265;BME280;42646;51.910;7.724;2023-01-26T02:42:18;101784.28;;;-1.05;100.00
39265;BME280;42646;51.910;7.724;2023-01-26T02:45:09;101792.13;;;-1.05;100.00
39265;BME280;42646;51.910;7.724;2023-01-26T02:47:37;101796.44;;;-1.04;100.00
39265;BME280;42646;51.910;7.724;2023-01-26T02:50:06;101792.06;;;-1.04;100.00
39265;BME280;42646;51.910;7.724;2023-01-26T02:52:34;101788.56;;;-1.03;100.00
39265;BME280;42646;51.910;7.724;2023-01-26T02:55:07;101778.13;;;-1.03;100.00
39265;BME280;42646;51.910;7.724;2023-01-26T02:57:58;101768.47;;;-1.01;100.00
39265;BME280;42646;51.910;7.724;2023-01-26T03:00:30;101776.31;;;-1.01;100.00
39265;BME280;42646;51.910;7.724;2023-01-26T03:03:11;101779.78;;;-0.99;100.00
39265;BME280;42646;51.910;7.724;2023-01-26T03:05:40;101778.00;;;-0.98;100.00
39265;BME280;42646;51.910;7.724;2023-01-26T03:08:07;101772.75;;;-0.97;100.00
39265;BME280;42646;51.910;7.724;2023-01-26T03:10:36;101769.28;;;-0.97;100.00
39265;BME280;42646;51.910;7.724;2023-01-26T03:13:08;101771.00;;;-0.96;100.00
39265;BME280;42646;51.910;7.724;2023-01-26T03:15:37;101772.69;;;-0.95;100.00
39265;BME280;42646;51.910;7.724;2023-01-26T03:18:21;101776.16;;;-0.93;100.00
39265;BME280;42646;51.910;7.724;2023-01-26T03:21:11;101771.78;;;-0.93;100.00
39265;BME280;42646;51.910;7.724;2023-01-26T03:23:56;101770.06;;;-0.94;100.00
39265;BME280;42646;51.910;7.724;2023-01-26T03:26:44;101763.94;;;-0.93;100.00
39265;BME280;42646;51.910;7.724;2023-01-26T03:29:38;101763.94;;;-0.93;100.00
39265;BME280;42646;51.910;7.724;2023-01-26T03:32:06;101766.50;;;-0.91;100.00
39265;BME280;42646;51.910;7.724;2023-01-26T03:34:38;101757.78;;;-0.90;100.00
39265;BME280;42646;51.910;7.724;2023-01-26T03:37:06;101763.84;;;-0.88;100.00
39265;BME280;42646;51.910;7.724;2023-01-26T03:39:53;101762.94;;;-0.87;100.00
39265;BME280;42646;51.910;7.724;2023-01-26T03:42:54;101765.56;;;-0.87;100.00
39265;BME280;42646;51.910;7.724;2023-01-26T03:45:40;101769.91;;;-0.88;100.00
39265;BME280;42646;51.910;7.724;2023-01-26T03:48:28;101769.00;;;-0.87;100.00
39265;BME280;42646;51.910;7.724;2023-01-26T03:51:15;101764.59;;;-0.85;100.00
39265;BME280;42646;51.910;7.724;2023-01-26T03:54:02;101760.22;;;-0.84;100.00
39265;BME280;42646;51.910;7.724;2023-01-26T03:56:48;101755.91;;;-0.85;100.00
39265;BME280;42646;51.910;7.724;2023-01-26T03:59:18;101755.88;;;-0.84;100.00
39265;BME280;42646;51.910;7.724;2023-01-26T04:02:17;101762.84;;;-0.84;100.00
39265;BME280;42646;51.910;7.724;2023-01-26T04:05:03;101752.41;;;-0.84;100.00
39265;BME280;42646;51.910;7.724;2023-01-26T04:07:53;101748.00;;;-0.82;100.00
39265;BME280;42646;51.910;7.724;2023-01-26T04:10:39;101739.31;;;-0.83;100.00
39265;BME280;42646;51.910;7.724;2023-01-26T04:13:07;101747.09;;;-0.81;100.00
39265;BME280;42646;51.910;7.724;2023-01-26T04:15:58;101750.56;;;-0.81;100.00
39265;BME280;42646;51.910;7.724;2023-01-26T04:18:45;101750.47;;;-0.77;100.00
39265;BME280;42646;51.910;7.724;2023-01-26T04:21:30;101751.38;;;-0.78;100.00
39265;BME280;42646;51.910;7.724;2023-01-26T04:24:08;101745.34;;;-0.81;100.00
39265;BME280;42646;51.910;7.724;2023-01-26T04:26:44;101749.66;;;-0.79;100.00
39265;BME280;42646;51.910;7.724;2023-01-26T04:29:16;101749.63;;;-0.78;100.00
39265;BME280;42646;51.910;7.724;2023-01-26T04:31:45;101744.38;;;-0.76;100.00
39265;BME280;42646;51.910;7.724;2023-01-26T04:34:20;101749.56;;;-0.75;100.00
39265;BME280;42646;51.910;7.724;2023-01-26T04:36:50;101747.00;;;-0.76;100.00
39265;BME280;42646;51.910;7.724;2023-01-26T04:39:20;101744.38;;;-0.76;100.00
39265;BME280;42646;51.910;7.724;2023-01-26T04:41:52;101740.06;;;-0.79;100.00
39265;BME280;42646;51.910;7.724;2023-01-26T04:44:25;101743.53;;;-0.77;100.00
39265;BME280;42646;51.910;7.724;2023-01-26T04:46:53;101743.47;;;-0.75;100.00
39265;BME280;42646;51.910;7.724;2023-01-26T04:49:23;101742.59;;;-0.74;100.00
39265;BME280;42646;51.910;7.724;2023-01-26T04:51:51;101747.81;;;-0.74;100.00
39265;BME280;42646;51.910;7.724;2023-01-26T04:54:19;101746.91;;;-0.73;100.00
39265;BME280;42646;51.910;7.724;2023-01-26T04:56:47;101749.47;;;-0.72;100.00
39265;BME280;42646;51.910;7.724;2023-01-26T04:59:14;101754.69;;;-0.70;100.00
39265;BME280;42646;51.910;7.724;2023-01-26T05:01:43;101746.84;;;-0.70;100.00
39265;BME280;42646;51.910;7.724;2023-01-26T05:04:12;101747.69;;;-0.70;100.00
39265;BME280;42646;51.910;7.724;2023-01-26T05:06:45;101733.72;;;-0.69;100.00
39265;BME280;42646;51.910;7.724;2023-01-26T05:09:14;101731.91;;;-0.67;100.00
39265;BME280;42646;51.910;7.724;2023-01-26T05:11:44;101732.78;;;-0.66;100.00
39265;BME280;42646;51.910;7.724;2023-01-26T05:14:31;101732.78;;;-0.66;100.00
39265;BME280;42646;51.910;7.724;2023-01-26T05:17:22;101723.19;;;-0.66;100.00
39265;BME280;42646;51.910;7.724;2023-01-26T05:19:59;101733.63;;;-0.66;100.00
39265;BME280;42646;51.910;7.724;2023-01-26T05:22:38;101729.19;;;-0.62;100.00
39265;BME280;42646;51.910;7.724;2023-01-26T05:25:42;101723.97;;;-0.62;100.00
39265;BME280;42646;51.910;7.724;2023-01-26T05:28:13;101723.97;;;-0.62;100.00
39265;BME280;42646;51.910;7.724;2023-01-26T05:30:41;101730.00;;;-0.60;100.00
39265;BME280;42646;51.910;7.724;2023-01-26T05:33:10;101739.59;;;-0.61;100.00
39265;BME280;42646;51.910;7.724;2023-01-26T05:35:38;101740.44;;;-0.60;100.00
39265;BME280;42646;51.910;7.724;2023-01-26T05:38:13;101738.69;;;-0.60;100.00
39265;BME280;42646;51.910;7.724;2023-01-26T05:40:42;101741.34;;;-0.61;100.00
39265;BME280;42646;51.910;7.724;2023-01-26T05:43:11;101738.69;;;-0.60;100.00
39265;BME280;42646;51.910;7.724;2023-01-26T05:45:49;101738.69;;;-0.58;100.00
39265;BME280;42646;51.910;7.724;2023-01-26T05:48:23;101736.00;;;-0.57;100.00
39265;BME280;42646;51.910;7.724;2023-01-26T05:50:54;101743.84;;;-0.57;100.00
39265;BME280;42646;51.910;7.724;2023-01-26T05:53:25;101738.53;;;-0.54;100.00
39265;BME280;42646;51.910;7.724;2023-01-26T05:55:54;101741.13;;;-0.52;100.00
39265;BME280;42646;51.910;7.724;2023-01-26T05:58:25;101737.59;;;-0.51;100.00
39265;BME280;42646;51.910;7.724;2023-01-26T06:00:52;101733.19;;;-0.49;100.00
39265;BME280;42646;51.910;7.724;2023-01-26T06:03:27;101743.63;;;-0.47;100.00
39265;BME280;42646;51.910;7.724;2023-01-26T06:05:55;101738.34;;;-0.46;100.00
39265;BME280;42646;51.910;7.724;2023-01-26T06:08:40;101727.84;;;-0.44;100.00
39265;BME280;42646;51.910;7.724;2023-01-26T06:11:26;101726.09;;;-0.44;100.00
39265;BME280;42646;51.910;7.724;2023-01-26T06:14:07;101732.16;;;-0.43;100.00
39265;BME280;42646;51.910;7.724;2023-01-26T06:16:34;101730.41;;;-0.43;100.00
39265;BME280;42646;51.910;7.724;2023-01-26T06:19:04;101730.38;;;-0.41;100.00
39265;BME280;42646;51.910;7.724;2023-01-26T06:21:32;101733.81;;;-0.39;100.00
39265;BME280;42646;51.910;7.724;2023-01-26T06:24:01;101732.03;;;-0.39;100.00
39265;BME280;42646;51.910;7.724;2023-01-26T06:26:30;101731.13;;;-0.38;100.00
39265;BME280;42646;51.910;7.724;2023-01-26T06:28:58;101731.13;;;-0.38;100.00
39265;BME280;42646;51.910;7.724;2023-01-26T06:31:31;101739.78;;;-0.36;100.00
39265;BME280;42646;51.910;7.724;2023-01-26T06:34:03;101738.06;;;-0.35;100.00
39265;BME280;42646;51.910;7.724;2023-01-26T06:36:36;101734.53;;;-0.34;100.00
39265;BME280;42646;51.910;7.724;2023-01-26T06:39:08;101738.00;;;-0.34;100.00
39265;BME280;42646;51.910;7.724;2023-01-26T06:41:38;101733.63;;;-0.33;100.00
39265;BME280;42646;51.910;7.724;2023-01-26T06:44:07;101733.53;;;-0.30;100.00
39265;BME280;42646;51.910;7.724;2023-01-26T06:46:35;101733.53;;;-0.30;100.00
39265;BME280;42646;51.910;7.724;2023-01-26T06:49:04;101735.28;;;-0.29;100.00
39265;BME280;42646;51.910;7.724;2023-01-26T06:51:55;101737.06;;;-0.31;100.00
39265;BME280;42646;51.910;7.724;2023-01-26T06:54:38;101736.19;;;-0.32;100.00
39265;BME280;42646;51.910;7.724;2023-01-26T06:57:31;101738.75;;;-0.30;100.00
39265;BME280;42646;51.910;7.724;2023-01-26T07:00:13;101736.16;;;-0.30;100.00
39265;BME280;42646;51.910;7.724;2023-01-26T07:03:00;101734.41;;;-0.30;100.00
39265;BME280;42646;51.910;7.724;2023-01-26T07:05:27;101731.81;;;-0.30;100.00
39265;BME280;42646;51.910;7.724;2023-01-26T07:07:55;101728.28;;;-0.29;100.00
39265;BME280;42646;51.910;7.724;2023-01-26T07:10:52;101728.28;;;-0.29;100.00
39265;BME280;42646;51.910;7.724;2023-01-26T07:13:20;101733.53;;;-0.29;100.00
39265;BME280;42646;51.910;7.724;2023-01-26T07:16:15;101729.13;;;-0.28;100.00
39265;BME280;42646;51.910;7.724;2023-01-26T07:18:44;101730.00;;;-0.28;100.00
39265;BME280;42646;51.910;7.724;2023-01-26T07:21:13;101720.34;;;-0.25;100.00
39265;BME280;42646;51.910;7.724;2023-01-26T07:23:41;101725.56;;;-0.25;100.00
39265;BME280;42646;51.910;7.724;2023-01-26T07:26:11;101729.91;;;-0.24;100.00
39265;BME280;42646;51.910;7.724;2023-01-26T07:28:40;101727.28;;;-0.24;100.00
39265;BME280;42646;51.910;7.724;2023-01-26T07:31:10;101733.34;;;-0.22;100.00
39265;BME280;42646;51.910;7.724;2023-01-26T07:33:38;101736.81;;;-0.22;100.00
39265;BME280;42646;51.910;7.724;2023-01-26T07:36:07;101739.44;;;-0.22;100.00
39265;BME280;42646;51.910;7.724;2023-01-26T07:38:36;101735.91;;;-0.21;100.00
39265;BME280;42646;51.910;7.724;2023-01-26T07:41:06;101737.63;;;-0.20;100.00
39265;BME280;42646;51.910;7.724;2023-01-26T07:43:36;101741.94;;;-0.19;100.00
39265;BME280;42646;51.910;7.724;2023-01-26T07:46:08;101743.66;;;-0.18;100.00
39265;BME280;42646;51.910;7.724;2023-01-26T07:48:38;101747.16;;;-0.17;100.00
39265;BME280;42646;51.910;7.724;2023-01-26T07:51:07;101746.25;;;-0.16;100.00
39265;BME280;42646;51.910;7.724;2023-01-26T07:53:36;101741.91;;;-0.17;100.00
39265;BME280;42646;51.910;7.724;2023-01-26T07:56:10;101751.44;;;-0.15;100.00
39265;BME280;42646;51.910;7.724;2023-01-26T07:58:40;101746.19;;;-0.15;100.00
39265;BME280;42646;51.910;7.724;2023-01-26T08:01:10;101754.91;;;-0.14;100.00
39265;BME280;42646;51.910;7.724;2023-01-26T08:03:41;101748.75;;;-0.13;100.00
39265;BME280;42646;51.910;7.724;2023-01-26T08:06:11;101750.44;;;-0.11;100.00
39265;BME280;42646;51.910;7.724;2023-01-26T08:08:42;101749.59;;;-0.11;100.00
39265;BME280;42646;51.910;7.724;2023-01-26T08:11:11;101754.72;;;-0.08;100.00
39265;BME280;42646;51.910;7.724;2023-01-26T08:13:41;101756.47;;;-0.09;100.00
39265;BME280;42646;51.910;7.724;2023-01-26T08:16:12;101758.25;;;-0.09;100.00
39265;BME280;42646;51.910;7.724;2023-01-26T08:18:41;101769.50;;;-0.07;100.00
39265;BME280;42646;51.910;7.724;2023-01-26T08:21:15;101757.25;;;-0.05;100.00
39265;BME280;42646;51.910;7.724;2023-01-26T08:23:47;101766.88;;;-0.06;100.00
39265;BME280;42646;51.910;7.724;2023-01-26T08:26:16;101765.97;;;-0.05;100.00
39265;BME280;42646;51.910;7.724;2023-01-26T08:28:46;101764.16;;;-0.03;100.00
39265;BME280;42646;51.910;7.724;2023-01-26T08:31:15;101756.25;;;-0.01;100.00
39265;BME280;42646;51.910;7.724;2023-01-26T08:33:46;101756.25;;;-0.01;100.00
39265;BME280;42646;51.910;7.724;2023-01-26T08:36:17;101757.09;;;0.01;100.00
39265;BME280;42646;51.910;7.724;2023-01-26T08:38:47;101751.00;;;0.01;100.00
39265;BME280;42646;51.910;7.724;2023-01-26T08:41:15;101755.28;;;0.03;100.00
39265;BME280;42646;51.910;7.724;2023-01-26T08:43:43;101757.03;;;0.03;100.00
39265;BME280;42646;51.910;7.724;2023-01-26T08:46:16;101761.31;;;0.05;100.00
39265;BME280;42646;51.910;7.724;2023-01-26T08:48:44;101756.91;;;0.07;100.00
39265;BME280;42646;51.910;7.724;2023-01-26T08:51:11;101759.47;;;0.09;100.00
39265;BME280;42646;51.910;7.724;2023-01-26T08:53:39;101761.13;;;0.11;100.00
39265;BME280;42646;51.910;7.724;2023-01-26T08:56:10;101760.19;;;0.14;100.00
39265;BME280;42646;51.910;7.724;2023-01-26T08:58:39;101762.72;;;0.17;100.00
39265;BME280;42646;51.910;7.724;2023-01-26T09:01:09;101767.94;;;0.18;100.00
39265;BME280;42646;51.910;7.724;2023-01-26T09:03:42;101780.97;;;0.20;100.00
39265;BME280;42646;51.910;7.724;2023-01-26T09:06:12;101785.28;;;0.21;100.00
39265;BME280;42646;51.910;7.724;2023-01-26T09:08:40;101784.31;;;0.23;100.00
39265;BME280;42646;51.910;7.724;2023-01-26T09:11:07;101781.69;;;0.25;100.00
39265;BME280;42646;51.910;7.724;2023-01-26T09:13:36;101779.06;;;0.25;100.00
39265;BME280;42646;51.910;7.724;2023-01-26T09:16:05;101779.00;;;0.26;100.00
39265;BME280;42646;51.910;7.724;2023-01-26T09:18:34;101778.97;;;0.28;100.00
39265;BME280;42646;51.910;7.724;2023-01-26T09:21:05;101778.06;;;0.29;100.00
39265;BME280;42646;51.910;7.724;2023-01-26T09:23:35;101773.66;;;0.31;100.00
39265;BME280;42646;51.910;7.724;2023-01-26T09:26:30;101770.13;;;0.32;100.00
39265;BME280;42646;51.910;7.724;2023-01-26T09:29:00;101769.16;;;0.35;100.00
39265;BME280;42646;51.910;7.724;2023-01-26T09:31:27;101773.53;;;0.36;100.00
39265;BME280;42646;51.910;7.724;2023-01-26T09:33:55;101768.22;;;0.37;100.00
39265;BME280;42646;51.910;7.724;2023-01-26T09:36:24;101763.75;;;0.41;100.00
39265;BME280;42646;51.910;7.724;2023-01-26T09:38:52;101766.34;;;0.42;100.00
39265;BME280;42646;51.910;7.724;2023-01-26T09:41:41;101769.75;;;0.44;100.00
39265;BME280;42646;51.910;7.724;2023-01-26T09:44:17;101776.66;;;0.47;100.00
39265;BME280;42646;51.910;7.724;2023-01-26T09:46:55;101774.00;;;0.48;100.00
39265;BME280;42646;51.910;7.724;2023-01-26T09:49:43;101780.13;;;0.47;100.00
39265;BME280;42646;51.910;7.724;2023-01-26T09:52:21;101782.66;;;0.50;100.00
39265;BME280;42646;51.910;7.724;2023-01-26T09:54:53;101770.44;;;0.51;100.00
39265;BME280;42646;51.910;7.724;2023-01-26T09:57:29;101778.16;;;0.56;100.00
39265;BME280;42646;51.910;7.724;2023-01-26T10:00:06;101772.06;;;0.55;100.00
39265;BME280;42646;51.910;7.724;2023-01-26T10:02:44;101768.47;;;0.58;100.00
39265;BME280;42646;51.910;7.724;2023-01-26T10:05:46;101772.78;;;0.59;100.00
39265;BME280;42646;51.910;7.724;2023-01-26T10:08:35;101769.31;;;0.60;100.00
39265;BME280;42646;51.910;7.724;2023-01-26T10:11:12;101765.78;;;0.61;100.00
39265;BME280;42646;51.910;7.724;2023-01-26T10:13:47;101767.47;;;0.62;100.00
39265;BME280;42646;51.910;7.724;2023-01-26T10:16:17;101771.00;;;0.61;100.00
39265;BME280;42646;51.910;7.724;2023-01-26T10:18:50;101766.56;;;0.63;100.00
39265;BME280;42646;51.910;7.724;2023-01-26T10:21:22;101761.28;;;0.64;100.00
39265;BME280;42646;51.910;7.724;2023-01-26T10:23:54;101757.78;;;0.65;100.00
39265;BME280;42646;51.910;7.724;2023-01-26T10:26:29;101753.41;;;0.66;100.00
39265;BME280;42646;51.910;7.724;2023-01-26T10:29:03;101744.63;;;0.67;100.00
39265;BME280;42646;51.910;7.724;2023-01-26T10:31:32;101742.81;;;0.69;100.00
39265;BME280;42646;51.910;7.724;2023-01-26T10:34:09;101743.66;;;0.69;100.00
39265;BME280;42646;51.910;7.724;2023-01-26T10:36:40;101736.63;;;0.71;100.00
39265;BME280;42646;51.910;7.724;2023-01-26T10:39:12;101744.44;;;0.73;100.00
39265;BME280;42646;51.910;7.724;2023-01-26T10:41:55;101742.63;;;0.75;100.00
39265;BME280;42646;51.910;7.724;2023-01-26T10:44:30;101741.69;;;0.77;100.00
39265;BME280;42646;51.910;7.724;2023-01-26T10:47:05;101732.94;;;0.77;100.00
39265;BME280;42646;51.910;7.724;2023-01-26T10:49:35;101741.69;;;0.77;100.00
39265;BME280;42646;51.910;7.724;2023-01-26T10:52:10;101738.16;;;0.78;100.00
39265;BME280;42646;51.910;7.724;2023-01-26T10:54:42;101733.72;;;0.80;100.00
39265;BME280;42646;51.910;7.724;2023-01-26T10:57:16;101734.50;;;0.83;100.00
39265;BME280;42646;51.910;7.724;2023-01-26T10:59:51;101728.38;;;0.84;100.00
39265;BME280;42646;51.910;7.724;2023-01-26T11:02:24;101729.25;;;0.84;100.00
39265;BME280;42646;51.910;7.724;2023-01-26T11:05:12;101734.41;;;0.86;100.00
39265;BME280;42646;51.910;7.724;2023-01-26T11:07:42;101741.38;;;0.87;100.00
39265;BME280;42646;51.910;7.724;2023-01-26T11:10:22;101732.59;;;0.88;100.00
39265;BME280;42646;51.910;7.724;2023-01-26T11:12:51;101730.84;;;0.88;100.00
39265;BME280;42646;51.910;7.724;2023-01-26T11:15:36;101730.81;;;0.90;100.00
39265;BME280;42646;51.910;7.724;2023-01-26T11:18:14;101728.19;;;0.90;100.00
39265;BME280;42646;51.910;7.724;2023-01-26T11:20:48;101732.50;;;0.91;100.00
39265;BME280;42646;51.910;7.724;2023-01-26T11:23:26;101722.84;;;0.93;100.00
39265;BME280;42646;51.910;7.724;2023-01-26T11:26:14;101728.91;;;0.93;100.00
39265;BME280;42646;51.910;7.724;2023-01-26T11:28:58;101720.97;;;0.96;100.00
39265;BME280;42646;51.910;7.724;2023-01-26T11:31:38;101729.78;;;0.94;100.00
39265;BME280;42646;51.910;7.724;2023-01-26T11:34:21;101729.75;;;0.95;100.00
39265;BME280;42646;51.910;7.724;2023-01-26T11:36:59;101729.75;;;0.95;100.00
39265;BME280;42646;51.910;7.724;2023-01-26T11:39:41;101727.16;;;0.94;100.00
39265;BME280;42646;51.910;7.724;2023-01-26T11:42:24;101727.97;;;0.96;100.00
39265;BME280;42646;51.910;7.724;2023-01-26T11:45:20;101725.38;;;0.96;100.00
39265;BME280;42646;51.910;7.724;2023-01-26T11:48:05;101717.44;;;0.97;100.00
39265;BME280;42646;51.910;7.724;2023-01-26T11:50:44;101720.84;;;0.99;100.00
39265;BME280;42646;51.910;7.724;2023-01-26T11:53:27;101719.06;;;1.01;100.00
39265;BME280;42646;51.910;7.724;2023-01-26T11:56:12;101722.47;;;1.03;100.00
39265;BME280;42646;51.910;7.724;2023-01-26T11:58:48;101719.00;;;1.03;100.00
39265;BME280;42646;51.910;7.724;2023-01-26T12:01:21;101712.00;;;1.03;100.00
39265;BME280;42646;51.910;7.724;2023-01-26T12:03:55;101707.63;;;1.04;100.00
39265;BME280;42646;51.910;7.724;2023-01-26T12:06:28;101694.50;;;1.04;100.00
39265;BME280;42646;51.910;7.724;2023-01-26T12:09:01;101699.69;;;1.05;100.00
39265;BME280;42646;51.910;7.724;2023-01-26T12:11:33;101691.03;;;1.03;100.00
39265;BME280;42646;51.910;7.724;2023-01-26T12:14:13;101689.22;;;1.05;100.00
39265;BME280;42646;51.910;7.724;2023-01-26T12:16:53;101684.03;;;1.04;100.00
39265;BME280;42646;51.910;7.724;2023-01-26T12:19:46;101686.56;;;1.07;100.00
39265;BME280;42646;51.910;7.724;2023-01-26T12:22:21;101676.88;;;1.09;100.00
39265;BME280;42646;51.910;7.724;2023-01-26T12:24:56;101672.44;;;1.11;100.00
39265;BME280;42646;51.910;7.724;2023-01-26T12:27:49;101670.63;;;1.13;100.00
39265;BME280;42646;51.910;7.724;2023-01-26T12:30:29;101669.66;;;1.16;100.00
39265;BME280;42646;51.910;7.724;2023-01-26T12:33:00;101662.59;;;1.18;100.00
39265;BME280;42646;51.910;7.724;2023-01-26T12:35:40;101663.41;;;1.20;100.00
39265;BME280;42646;51.910;7.724;2023-01-26T12:38:13;101660.72;;;1.21;100.00
39265;BME280;42646;51.910;7.724;2023-01-26T12:40:55;101654.50;;;1.24;100.00
39265;BME280;42646;51.910;7.724;2023-01-26T12:43:35;101658.88;;;1.25;100.00
39265;BME280;42646;51.910;7.724;2023-01-26T12:46:09;101651.00;;;1.25;100.00
39265;BME280;42646;51.910;7.724;2023-01-26T12:48:39;101646.59;;;1.25;100.00
39265;BME280;42646;51.910;7.724;2023-01-26T12:51:13;101654.41;;;1.27;100.00
39265;BME280;42646;51.910;7.724;2023-01-26T12:53:50;101650.81;;;1.29;100.00
39265;BME280;42646;51.910;7.724;2023-01-26T12:56:23;101642.91;;;1.31;100.00
39265;BME280;42646;51.910;7.724;2023-01-26T12:58:54;101649.88;;;1.32;100.00
39265;BME280;42646;51.910;7.724;2023-01-26T13:01:26;101649.81;;;1.33;100.00
39265;BME280;42646;51.910;7.724;2023-01-26T13:04:07;101648.88;;;1.34;100.00
39265;BME280;42646;51.910;7.724;2023-01-26T13:06:35;101647.97;;;1.36;100.00
39265;BME280;42646;51.910;7.724;2023-01-26T13:09:18;101640.94;;;1.38;100.00
39265;BME280;42646;51.910;7.724;2023-01-26T13:11:48;101652.19;;;1.40;100.00
39265;BME280;42646;51.910;7.724;2023-01-26T13:14:39;101647.88;;;1.39;100.00
39265;BME280;42646;51.910;7.724;2023-01-26T13:17:48;101645.19;;;1.40;100.00
39265;BME280;42646;51.910;7.724;2023-01-26T13:23:40;101636.38;;;1.43;100.00